Reykjavik, Iceland

12:59 PM GMT on August 29, 2014 (GMT +0000)
Perlukor | Change Station
CLOSE
Current Station
Personal Weather Station
Location: Kopavogur, IS
Elevation: 456 ft
Nearby Weather Stations

Elev 456 ft 64.09 °N, 21.82 °W | Updated 3 minutes ago

Mostly Cloudy
Mostly Cloudy
56.0 °F
Feels Like 56.0 °F
N
0.0
Wind Variable Wind from SE
Gusts 4.0 mph

Today
High -- | Low -- °F
--% Chance of Precip.
Yesterday
High -- | Low -- °F
Precip. -- in
6:00 AM 8:54 PM
Waxing Crescent, 14% visible
Pressure 29.68 in
Visibility 6.2 miles
Clouds Scattered Clouds 1800 ft
Mostly Cloudy 2500 ft
Mostly Cloudy 7500 ft
Dew Point 48 °F
Humidity 75%
Rainfall 0.00 in
Snow Depth Not available.
UV 1.3 out of 12
Pollen Not available.
Air Quality Not available.
Flu Activity Not available.
METAR BIKF 291230Z 12018KT 9999 SCT018 BKN025 BKN075 12/08 Q1005

More Conditions Fewer Conditions

Pressure 29.68 in
Visibility 6.2 miles
Clouds Scattered Clouds 1800 ft
Mostly Cloudy 2500 ft
Mostly Cloudy 7500 ft
Dew Point 48 °F
Humidity 75%
Rainfall 0.00 in
Snow Depth Not available.
UV 1.3 out of 12
Pollen Not available.
Air Quality Not available.
Flu Activity Not available.
METAR BIKF 291230Z 12018KT 9999 SCT018 BKN025 BKN075 12/08 Q1005

More Conditions Fewer Conditions

10-Day Weather Forecast

Almanac

Astronomy

Aug. 29, 2014 Rise Set
Actual Time 6:00 AM GMT 8:54 PM GMT
Civil Twilight 5:05 AM GMT 9:48 PM GMT
Nautical Twilight 3:46 AM GMT 11:06 PM GMT
Astronomical Twilight 2:01 AM GMT 12:55 AM GMT
Moon 11:10 AM GMT 9:08 PM GMT
Length of Visible Light 16h 42m
Length of Day
14h 53m
Tomorrow will be 6m 30s shorter.
Waxing Crescent, 14% of the Moon is Illuminated
Today
Waxing Crescent
Sep 2
First Quarter
Sep 8
Full
Sep 15
Last Quarter
Sep 24
New

Yesterday's Extremes

Country Highs Country Lows

Community

WunderPhotos

Upload Photos

1,748,221 photos uploaded!

Nearby

Snow Depth

Not available.

Earthquake Activity

City Distance Mag. Time & Date
No recent earthquake activity has been reported nearby.
Minimum magnitude displayed is 2.5.

Coastal Water Temperatures

Place Temperature
No Stations Reporting

Nearby Weather Stations